Time;durP1;ratioP1;P1;durP2;ratioP2;P2;SDS_P1;SDS_P2;PMS_P1;PMS_P2;Temp;Humidity;BMP_temperature;BMP_pressure;BME280_temperature;BME280_humidity;BME280_pressure;Samples;Min_cycle;Max_cycle;Signal;HPM_P1;HPM_P2
2021/07/03 00:00:53;;;;;;;7.33;4.60;;;;;;;16.66;74.43;100887.38;5073400;28;20170;-71
2021/07/03 00:03:18;;;;;;;7.67;4.30;;;;;;;16.62;74.87;100887.72;5074940;28;20512;-71
2021/07/03 00:05:43;;;;;;;5.83;4.27;;;;;;;16.58;75.01;100885.25;5073549;28;20197;-73
2021/07/03 00:08:09;;;;;;;8.97;4.60;;;;;;;16.53;75.54;100887.44;5073574;28;20179;-69
2021/07/03 00:10:34;;;;;;;6.80;4.47;;;;;;;16.49;76.25;100887.81;5074883;28;20479;-70
2021/07/03 00:12:59;;;;;;;7.53;4.33;;;;;;;16.51;76.32;100880.47;5073220;28;20275;-70
2021/07/03 00:15:25;;;;;;;10.23;5.43;;;;;;;16.43;76.76;100886.44;5056585;28;20263;-70
2021/07/03 00:17:55;;;;;;;7.23;4.90;;;;;;;16.41;77.01;100884.84;5073512;28;20174;-70
2021/07/03 00:20:21;;;;;;;7.33;5.30;;;;;;;16.41;76.76;100888.41;5073559;28;20171;-70
2021/07/03 00:22:47;;;;;;;11.10;6.20;;;;;;;16.41;77.06;100885.72;5040584;28;20234;-71
2021/07/03 00:25:12;;;;;;;6.63;4.33;;;;;;;16.42;76.81;100890.13;5075045;28;20674;-71
2021/07/03 00:27:38;;;;;;;7.37;4.57;;;;;;;16.35;77.08;100894.22;5073271;28;20546;-71
2021/07/03 00:30:05;;;;;;;11.27;5.10;;;;;;;16.32;77.24;100888.22;5073271;28;20179;-71
2021/07/03 00:32:30;;;;;;;9.47;5.83;;;;;;;16.20;78.01;100898.94;5072859;28;20214;-71
2021/07/03 00:34:55;;;;;;;11.47;8.17;;;;;;;16.19;78.02;100894.53;5074552;28;20175;-71
2021/07/03 00:37:21;;;;;;;8.73;5.83;;;;;;;16.20;78.25;100900.78;5071915;28;20182;-71
2021/07/03 00:39:46;;;;;;;9.07;5.13;;;;;;;16.16;78.37;100902.00;5056093;28;20179;-71
2021/07/03 00:42:11;;;;;;;34.00;14.83;;;;;;;16.15;79.08;100902.97;5074042;28;20199;-71
2021/07/03 00:44:37;;;;;;;11.90;5.80;;;;;;;16.12;78.45;100906.75;5074454;28;20178;-71
2021/07/03 00:47:06;;;;;;;12.20;6.07;;;;;;;16.10;78.84;100897.94;5072789;28;20631;-71
2021/07/03 00:49:34;;;;;;;10.10;5.30;;;;;;;16.08;79.01;100902.56;5073139;28;20198;-71
2021/07/03 00:52:00;;;;;;;8.97;6.13;;;;;;;16.07;79.04;100905.38;5074057;28;20207;-71
2021/07/03 00:54:27;;;;;;;8.77;5.60;;;;;;;16.00;79.48;100907.69;5055902;28;20187;-71
2021/07/03 00:57:01;;;;;;;8.40;5.30;;;;;;;16.01;78.94;100905.84;5056098;28;20511;-71
2021/07/03 00:59:41;;;;;;;10.17;4.97;;;;;;;15.99;79.36;100907.78;5055859;28;20170;-71
2021/07/03 01:02:09;;;;;;;7.67;5.30;;;;;;;15.95;79.19;100899.06;5055478;28;20686;-70
2021/07/03 01:04:35;;;;;;;10.13;5.50;;;;;;;15.88;79.64;100893.28;5056131;28;20167;-71
2021/07/03 01:07:00;;;;;;;7.70;5.13;;;;;;;15.93;79.26;100895.63;5073545;28;20761;-71
2021/07/03 01:09:25;;;;;;;9.33;5.60;;;;;;;15.86;79.50;100902.44;5072521;28;20185;-71
2021/07/03 01:11:51;;;;;;;10.40;5.13;;;;;;;15.83;79.34;100897.28;5055599;28;20199;-71
2021/07/03 01:14:18;;;;;;;7.53;5.63;;;;;;;15.81;79.60;100902.78;5039048;28;20178;-71
2021/07/03 01:16:44;;;;;;;9.20;5.20;;;;;;;15.79;79.93;100895.78;5073779;28;20540;-71
2021/07/03 01:19:09;;;;;;;9.63;5.00;;;;;;;15.70;80.08;100896.47;5074513;28;20186;-71
2021/07/03 01:21:35;;;;;;;11.10;5.20;;;;;;;15.61;80.52;100893.50;5073261;28;20210;-71
2021/07/03 01:24:00;;;;;;;10.13;5.10;;;;;;;15.58;80.65;100893.69;5072456;28;20505;-71
2021/07/03 01:26:25;;;;;;;7.07;4.67;;;;;;;15.57;80.84;100897.31;5072184;28;20195;-71
2021/07/03 01:28:50;;;;;;;9.27;5.30;;;;;;;15.57;80.87;100891.94;5072452;28;20539;-71
2021/07/03 01:31:16;;;;;;;7.47;4.83;;;;;;;15.55;80.87;100890.31;5072162;28;20190;-70
2021/07/03 01:33:42;;;;;;;8.40;5.07;;;;;;;15.53;80.92;100893.13;5055978;28;20236;-72
2021/07/03 01:36:08;;;;;;;7.90;4.93;;;;;;;15.52;81.21;100895.94;5071993;28;20249;-71
2021/07/03 01:38:33;;;;;;;7.93;5.20;;;;;;;15.54;80.88;100889.47;5072065;28;20670;-71
2021/07/03 01:40:58;;;;;;;9.57;5.50;;;;;;;15.51;81.04;100891.53;5038696;28;20179;-70
2021/07/03 01:43:26;;;;;;;10.30;5.43;;;;;;;15.48;81.23;100881.00;5071806;28;20676;-71
2021/07/03 01:45:53;;;;;;;9.87;4.57;;;;;;;15.40;81.40;100886.94;5071681;28;20209;-71
2021/07/03 01:48:26;;;;;;;8.97;5.27;;;;;;;15.36;81.68;100892.66;5072266;28;20182;-71
2021/07/03 01:50:52;;;;;;;11.43;5.57;;;;;;;15.25;82.12;100888.03;5061889;28;20175;-71
2021/07/03 01:53:17;;;;;;;8.87;4.90;;;;;;;15.19;82.18;100886.63;5078677;28;20178;-71
2021/07/03 01:55:42;;;;;;;9.03;4.67;;;;;;;15.17;82.63;100883.19;5078543;28;20547;-72
2021/07/03 01:58:07;;;;;;;14.60;5.03;;;;;;;15.14;82.69;100879.88;5078280;28;20179;-69
2021/07/03 02:00:33;;;;;;;7.77;5.37;;;;;;;15.19;82.39;100872.31;5078284;28;20662;-71
2021/07/03 02:02:58;;;;;;;8.47;4.93;;;;;;;15.12;82.72;100879.13;5079801;28;20287;-71
2021/07/03 02:05:23;;;;;;;8.90;4.53;;;;;;;15.05;82.72;100876.00;5079943;28;20527;-70
2021/07/03 02:07:49;;;;;;;9.07;4.93;;;;;;;15.06;82.77;100872.34;5078368;28;20217;-70
2021/07/03 02:10:14;;;;;;;6.80;4.43;;;;;;;15.05;82.94;100867.94;5080304;28;20539;-71
2021/07/03 02:12:41;;;;;;;8.17;4.80;;;;;;;15.05;82.83;100867.09;5061503;28;20198;-70
2021/07/03 02:15:07;;;;;;;6.17;4.67;;;;;;;14.98;83.29;100866.66;5078388;28;20223;-70
2021/07/03 02:17:32;;;;;;;11.67;5.33;;;;;;;14.99;82.88;100868.38;5079452;28;20589;-70
2021/07/03 02:19:57;;;;;;;7.47;4.53;;;;;;;14.89;83.06;100873.56;5061388;28;20524;-70
2021/07/03 02:22:24;;;;;;;7.97;4.93;;;;;;;14.85;83.37;100873.84;5078022;28;20231;-70
2021/07/03 02:24:49;;;;;;;9.00;5.43;;;;;;;14.88;83.37;100879.91;5078226;28;20205;-70
2021/07/03 02:27:14;;;;;;;5.97;4.57;;;;;;;14.83;83.47;100884.69;5079339;28;20177;-70
2021/07/03 02:29:40;;;;;;;7.80;4.60;;;;;;;14.82;83.69;100888.34;5078530;28;20171;-70
2021/07/03 02:32:05;;;;;;;11.07;5.20;;;;;;;14.74;84.31;100884.50;5079223;28;20248;-70
2021/07/03 02:34:31;;;;;;;8.27;5.13;;;;;;;14.75;84.00;100883.53;5077904;28;20193;-70
2021/07/03 02:36:56;;;;;;;7.70;4.93;;;;;;;14.72;84.41;100883.75;5061385;28;20197;-71
2021/07/03 02:39:21;;;;;;;6.80;4.30;;;;;;;14.66;84.70;100879.66;5077974;28;20179;-71
2021/07/03 02:41:47;;;;;;;25.83;5.70;;;;;;;14.63;84.62;100888.78;5078138;28;20199;-70
2021/07/03 02:44:12;;;;;;;9.53;5.53;;;;;;;14.62;84.60;100875.47;5078077;28;20646;-70
2021/07/03 02:46:37;;;;;;;10.03;5.27;;;;;;;14.63;84.86;100872.66;5079177;28;20199;-70
2021/07/03 02:49:03;;;;;;;21.53;6.63;;;;;;;14.61;84.38;100874.59;5079314;28;20658;-70
2021/07/03 02:51:28;;;;;;;15.53;7.27;;;;;;;14.63;84.93;100878.03;5078062;28;20226;-71
2021/07/03 02:53:53;;;;;;;10.00;5.37;;;;;;;14.63;84.75;100869.13;5079199;28;20182;-70
2021/07/03 02:56:19;;;;;;;9.30;5.63;;;;;;;14.67;84.36;100867.94;5078215;28;20170;-70
2021/07/03 02:58:44;;;;;;;9.57;6.07;;;;;;;14.62;84.77;100865.56;5077724;28;20182;-70
2021/07/03 03:01:09;;;;;;;12.77;6.97;;;;;;;14.63;84.93;100869.13;5076004;28;20748;-70
2021/07/03 03:03:34;;;;;;;12.97;6.50;;;;;;;14.66;84.84;100868.91;5076070;28;20516;-71
2021/07/03 03:06:00;;;;;;;9.60;5.40;;;;;;;14.65;84.82;100867.19;5075078;28;20202;-70
2021/07/03 03:08:25;;;;;;;13.37;7.07;;;;;;;14.63;84.97;100866.44;5074636;28;20179;-70
2021/07/03 03:10:51;;;;;;;9.43;6.40;;;;;;;14.60;85.22;100867.50;5074824;28;20179;-70
2021/07/03 03:13:16;;;;;;;7.57;5.80;;;;;;;14.58;85.45;100866.75;5074879;28;20179;-70
2021/07/03 03:15:41;;;;;;;9.13;5.57;;;;;;;14.57;86.07;100872.25;5075728;28;20175;-70
2021/07/03 03:18:07;;;;;;;9.23;5.60;;;;;;;14.58;85.76;100880.19;5057499;28;20175;-69
2021/07/03 03:20:33;;;;;;;14.13;6.70;;;;;;;14.55;85.87;100879.53;5075603;28;20186;-70
2021/07/03 03:22:58;;;;;;;11.63;4.90;;;;;;;14.53;86.04;100874.28;5074191;28;20202;-70
2021/07/03 03:25:23;;;;;;;10.57;5.20;;;;;;;14.50;86.29;100876.31;5074097;28;20203;-70
2021/07/03 03:27:48;;;;;;;10.33;5.73;;;;;;;14.47;86.35;100879.19;5074184;28;20539;-71
2021/07/03 03:30:14;;;;;;;11.23;5.70;;;;;;;14.47;86.48;100876.50;5075274;28;20179;-71
2021/07/03 03:32:40;;;;;;;12.83;6.47;;;;;;;14.43;87.21;100872.31;5075093;28;20203;-70
2021/07/03 03:35:07;;;;;;;9.47;5.00;;;;;;;14.45;86.52;100883.78;5073775;28;20238;-70
2021/07/03 03:37:32;;;;;;;8.53;5.43;;;;;;;14.44;86.85;100877.56;5075334;28;20588;-72
2021/07/03 03:39:57;;;;;;;9.60;5.70;;;;;;;14.42;87.02;100882.16;5074020;28;20209;-71
2021/07/03 03:42:23;;;;;;;9.90;5.40;;;;;;;14.42;86.73;100884.84;5075062;28;20563;-71
2021/07/03 03:44:48;;;;;;;8.03;5.37;;;;;;;14.44;87.16;100888.31;5073810;28;20175;-71
2021/07/03 03:47:13;;;;;;;11.20;6.20;;;;;;;14.42;87.42;100889.34;5074910;28;20213;-70
2021/07/03 03:49:38;;;;;;;13.47;7.47;;;;;;;14.42;87.09;100890.22;5073802;28;20178;-70
2021/07/03 03:52:04;;;;;;;16.60;6.00;;;;;;;14.48;86.98;100894.31;5074920;28;20269;-70
2021/07/03 03:54:29;;;;;;;12.93;8.43;;;;;;;14.42;86.94;100894.72;5074837;28;20577;-71
2021/07/03 03:59:38;;;;;;;12.57;6.20;;;;;;;14.40;87.55;100884.09;5059848;28;20224;-71
2021/07/03 04:02:04;;;;;;;8.53;5.77;;;;;;;14.41;87.45;100883.13;5074679;28;20191;-71
2021/07/03 04:04:29;;;;;;;13.10;6.17;;;;;;;14.45;87.09;100883.78;5073946;28;20181;-71
2021/07/03 04:06:54;;;;;;;9.57;5.13;;;;;;;14.41;87.80;100885.81;5074696;28;20215;-71
2021/07/03 04:09:20;;;;;;;8.10;5.80;;;;;;;14.43;87.55;100881.22;5073425;28;20550;-71
2021/07/03 04:11:45;;;;;;;12.57;5.33;;;;;;;14.50;87.28;100887.06;5073029;28;20207;-71
2021/07/03 04:14:10;;;;;;;7.70;5.57;;;;;;;14.55;86.96;100879.53;5073252;28;20179;-71
2021/07/03 04:16:36;;;;;;;7.03;5.60;;;;;;;14.57;86.84;100878.47;5073274;28;20225;-71
2021/07/03 04:19:01;;;;;;;12.43;7.17;;;;;;;14.54;86.83;100872.44;5073182;28;20179;-70
2021/07/03 04:21:26;;;;;;;11.37;8.07;;;;;;;14.48;87.33;100871.03;5103313;22;20228;-72
2021/07/03 04:23:51;;;;;;;13.23;6.23;;;;;;;14.47;87.34;100871.97;5115118;28;20170;-72
2021/07/03 04:26:17;;;;;;;9.53;6.00;;;;;;;14.52;87.29;100875.25;5115276;28;20326;-71
2021/07/03 04:28:42;;;;;;;9.90;6.07;;;;;;;14.55;87.23;100871.47;5079836;28;20699;-72
2021/07/03 04:31:07;;;;;;;8.93;5.93;;;;;;;14.59;87.09;100870.31;5114901;28;20179;-72
2021/07/03 04:33:33;;;;;;;13.10;5.37;;;;;;;14.59;86.90;100865.78;5096685;28;20174;-72
2021/07/03 04:35:58;;;;;;;8.67;5.50;;;;;;;14.59;86.98;100871.16;5096995;28;20161;-72
2021/07/03 04:38:23;;;;;;;11.00;5.80;;;;;;;14.64;86.77;100873.53;5097386;28;20200;-72
2021/07/03 04:40:48;;;;;;;11.30;7.20;;;;;;;14.65;86.74;100875.25;5096451;28;20173;-71
2021/07/03 04:43:14;;;;;;;9.73;5.70;;;;;;;14.73;86.26;100878.25;5114665;28;20197;-71
2021/07/03 04:45:39;;;;;;;7.67;5.20;;;;;;;14.81;86.05;100875.03;5096518;28;20189;-71
2021/07/03 04:48:04;;;;;;;9.70;6.13;;;;;;;14.87;85.79;100885.38;5096243;28;20285;-71
2021/07/03 04:50:30;;;;;;;15.43;7.67;;;;;;;14.89;85.85;100878.94;5096338;28;20281;-71
2021/07/03 04:52:55;;;;;;;18.43;6.10;;;;;;;14.99;85.34;100876.44;5096154;28;20242;-71
2021/07/03 04:55:20;;;;;;;10.60;5.40;;;;;;;15.05;85.27;100873.31;5096092;28;20533;-71
2021/07/03 04:57:45;;;;;;;12.13;6.07;;;;;;;15.07;85.19;100879.44;5096459;28;20177;-72
2021/07/03 05:00:11;;;;;;;8.67;6.27;;;;;;;15.25;84.53;100880.84;5078941;28;20227;-72
2021/07/03 05:02:37;;;;;;;8.93;6.00;;;;;;;15.25;84.81;100875.47;5095840;28;20242;-72
2021/07/03 05:05:02;;;;;;;12.13;6.33;;;;;;;15.43;83.75;100873.25;5096318;28;20673;-71
2021/07/03 05:07:28;;;;;;;10.23;5.80;;;;;;;15.51;83.98;100880.75;5113825;28;20219;-72
2021/07/03 05:09:53;;;;;;;10.00;6.67;;;;;;;15.56;83.72;100883.97;5113929;28;20231;-71
2021/07/03 05:12:18;;;;;;;11.70;6.30;;;;;;;15.60;83.90;100885.50;5113926;28;20189;-71
2021/07/03 05:14:44;;;;;;;7.87;5.87;;;;;;;15.63;83.72;100878.09;5114403;28;20174;-71
2021/07/03 05:17:09;;;;;;;10.37;5.03;;;;;;;15.68;83.79;100879.59;5113845;28;20173;-71
2021/07/03 05:19:34;;;;;;;9.47;5.50;;;;;;;15.74;83.82;100887.19;5113900;28;20227;-71
2021/07/03 05:22:00;;;;;;;7.47;5.13;;;;;;;15.67;84.24;100880.56;5114622;28;20205;-70
2021/07/03 05:24:25;;;;;;;11.23;5.73;;;;;;;15.73;83.98;100880.09;5094885;28;20613;-71
2021/07/03 05:26:50;;;;;;;11.57;5.80;;;;;;;15.71;83.93;100879.34;5096242;28;20205;-70
2021/07/03 05:29:16;;;;;;;8.03;5.13;;;;;;;15.69;84.26;100871.41;5095672;28;20208;-72
2021/07/03 05:31:41;;;;;;;10.67;5.60;;;;;;;15.77;84.05;100877.06;5113979;28;20351;-71
2021/07/03 05:34:06;;;;;;;12.00;6.10;;;;;;;15.77;83.89;100879.75;5095822;28;20264;-72
2021/07/03 05:36:31;;;;;;;15.50;5.50;;;;;;;15.80;83.74;100879.53;5098028;28;20185;-72
2021/07/03 05:38:57;;;;;;;11.23;7.43;;;;;;;15.81;84.11;100877.69;5115851;28;20595;-72
2021/07/03 05:41:22;;;;;;;7.90;5.83;;;;;;;15.93;83.93;100882.16;5097391;28;21453;-71
2021/07/03 05:43:48;;;;;;;10.10;5.87;;;;;;;16.03;83.40;100880.53;5078922;28;20264;-72
2021/07/03 05:46:14;;;;;;;11.37;8.77;;;;;;;16.13;82.77;100875.31;5115380;28;20200;-72
2021/07/03 05:48:40;;;;;;;11.43;6.00;;;;;;;16.20;82.06;100884.63;5126265;28;20181;-72
2021/07/03 05:51:06;;;;;;;8.03;5.50;;;;;;;16.36;81.59;100879.81;5112658;28;20188;-73
2021/07/03 05:53:31;;;;;;;9.17;6.10;;;;;;;16.45;81.38;100873.72;5130286;28;20178;-71
2021/07/03 05:55:57;;;;;;;11.07;5.83;;;;;;;16.51;80.63;100877.78;5123406;28;20170;-71
2021/07/03 05:58:22;;;;;;;7.43;5.20;;;;;;;16.59;80.61;100875.34;5095847;28;20204;-71
2021/07/03 06:00:47;;;;;;;6.37;4.80;;;;;;;16.66;80.27;100871.22;5113492;28;20177;-72
2021/07/03 06:03:13;;;;;;;8.77;6.77;;;;;;;16.63;80.39;100886.72;5095054;28;20562;-71
2021/07/03 06:05:38;;;;;;;8.57;5.47;;;;;;;16.70;80.91;100880.78;5094953;28;20539;-72
2021/07/03 06:08:04;;;;;;;6.77;5.37;;;;;;;16.64;81.53;100888.44;5113155;28;20177;-71
2021/07/03 06:10:29;;;;;;;8.93;5.00;;;;;;;16.68;80.62;100890.81;5077902;28;20182;-71
2021/07/03 06:12:55;;;;;;;10.50;5.13;;;;;;;16.74;81.00;100879.59;5113150;28;20533;-71
2021/07/03 06:15:20;;;;;;;8.30;5.17;;;;;;;16.76;80.78;100877.63;5113008;28;20166;-72
2021/07/03 06:17:45;;;;;;;9.10;6.33;;;;;;;16.83;80.30;100889.66;5094784;28;20177;-71
2021/07/03 06:20:11;;;;;;;8.40;6.93;;;;;;;16.87;80.56;100883.03;5095567;28;20545;-71
2021/07/03 06:22:37;;;;;;;8.73;5.40;;;;;;;17.08;79.31;100887.69;5095159;28;20205;-72
2021/07/03 06:25:04;;;;;;;8.83;5.70;;;;;;;17.13;78.13;100880.97;5094988;28;20661;-70
2021/07/03 06:27:30;;;;;;;7.83;4.40;;;;;;;17.30;78.20;100884.16;5078127;28;20197;-70
2021/07/03 06:29:56;;;;;;;6.63;4.30;;;;;;;17.40;77.34;100885.13;5094836;28;20182;-71
2021/07/03 06:32:21;;;;;;;8.33;4.63;;;;;;;17.35;76.97;100887.34;5113122;28;20192;-71
2021/07/03 06:34:46;;;;;;;7.40;4.50;;;;;;;17.48;76.19;100888.94;5078001;28;20208;-71
2021/07/03 06:37:12;;;;;;;9.13;4.97;;;;;;;17.47;75.23;100894.47;5097902;28;20200;-70
2021/07/03 06:39:37;;;;;;;7.57;4.47;;;;;;;17.45;74.51;100886.47;5116973;28;20694;-71
2021/07/03 06:42:03;;;;;;;5.13;3.87;;;;;;;17.48;73.58;100890.78;5116806;28;20194;-71
2021/07/03 06:44:28;;;;;;;6.30;4.10;;;;;;;17.55;73.26;100891.16;5116879;28;20178;-71
2021/07/03 06:46:53;;;;;;;5.43;3.70;;;;;;;17.61;73.11;100886.09;5116994;28;20204;-71
2021/07/03 06:49:18;;;;;;;6.73;3.83;;;;;;;17.68;71.90;100884.66;5117067;28;20494;-72
2021/07/03 06:51:44;;;;;;;10.53;3.93;;;;;;;17.73;72.04;100901.31;5099446;28;20197;-71
2021/07/03 06:54:09;;;;;;;5.57;4.23;;;;;;;17.90;72.43;100891.00;5117037;28;20180;-71
2021/07/03 06:56:35;;;;;;;7.67;3.70;;;;;;;17.78;71.55;100901.78;5098939;28;20178;-71
2021/07/03 06:59:00;;;;;;;4.33;3.80;;;;;;;17.92;68.90;100895.28;5117692;28;20184;-72
2021/07/03 07:01:26;;;;;;;4.90;3.50;;;;;;;17.91;68.96;100903.50;5099669;28;20200;-71
2021/07/03 07:03:51;;;;;;;4.63;3.80;;;;;;;18.01;68.35;100908.00;5120924;28;20251;-72
2021/07/03 07:06:16;;;;;;;5.67;3.50;;;;;;;18.02;68.69;100895.38;5128712;28;20197;-71
2021/07/03 07:08:42;;;;;;;8.97;3.73;;;;;;;17.94;69.48;100908.66;5117274;28;20174;-72
2021/07/03 07:11:07;;;;;;;6.10;3.60;;;;;;;17.86;69.86;100903.91;5116505;28;20166;-72
2021/07/03 07:13:32;;;;;;;4.93;3.23;;;;;;;17.87;69.35;100902.91;5116784;28;20193;-72
2021/07/03 07:15:57;;;;;;;6.63;3.53;;;;;;;17.90;68.88;100901.78;5116246;28;20717;-72
2021/07/03 07:18:23;;;;;;;4.80;3.13;;;;;;;18.09;69.44;100907.38;5116728;28;20187;-72
2021/07/03 07:20:48;;;;;;;5.40;3.63;;;;;;;18.26;68.81;100903.28;5098120;28;20212;-72
2021/07/03 07:23:14;;;;;;;5.50;3.00;;;;;;;18.24;67.50;100905.25;5080601;28;20254;-72
2021/07/03 07:25:40;;;;;;;5.23;3.33;;;;;;;18.13;67.44;100915.09;5097769;28;20205;-71
2021/07/03 07:28:05;;;;;;;4.70;3.20;;;;;;;18.06;65.92;100903.09;5097546;28;20210;-72
2021/07/03 07:30:30;;;;;;;4.93;2.57;;;;;;;17.80;66.90;100905.22;5116216;28;20170;-71
2021/07/03 07:32:56;;;;;;;3.93;2.60;;;;;;;17.95;67.04;100921.16;5115863;28;20688;-72
2021/07/03 07:35:21;;;;;;;5.40;2.90;;;;;;;17.99;66.64;100912.69;5116037;28;20161;-72
2021/07/03 07:37:50;;;;;;;6.30;2.67;;;;;;;18.01;66.12;100915.25;5115721;28;20198;-72
2021/07/03 07:40:16;;;;;;;3.93;3.03;;;;;;;18.09;66.41;100904.66;5115613;28;20240;-72
2021/07/03 07:42:42;;;;;;;6.60;3.70;;;;;;;18.23;66.08;100909.81;5097931;28;20338;-72
2021/07/03 07:45:08;;;;;;;3.83;2.60;;;;;;;18.31;65.95;100906.44;5098642;28;20193;-72
2021/07/03 07:47:34;;;;;;;3.97;2.70;;;;;;;18.39;66.28;100912.91;5097154;28;20176;-71
2021/07/03 07:49:59;;;;;;;4.80;3.17;;;;;;;18.41;64.95;100908.25;5080553;28;20209;-72
2021/07/03 07:52:24;;;;;;;5.73;2.40;;;;;;;18.55;64.62;100911.59;5097450;28;20242;-71
2021/07/03 07:54:50;;;;;;;4.37;2.80;;;;;;;18.19;64.24;100916.41;5116882;28;20177;-72
2021/07/03 07:57:15;;;;;;;3.37;3.07;;;;;;;18.27;63.97;100923.91;5097957;28;20718;-71
2021/07/03 07:59:40;;;;;;;5.53;2.97;;;;;;;18.04;64.29;100910.47;5115435;28;20178;-71
2021/07/03 08:02:06;;;;;;;3.97;2.67;;;;;;;18.11;65.57;100906.25;5096947;28;20190;-71
2021/07/03 08:04:31;;;;;;;6.67;3.37;;;;;;;18.34;64.06;100933.22;5096990;28;20162;-72
2021/07/03 08:06:57;;;;;;;6.97;3.03;;;;;;;18.15;64.02;100916.81;5115418;28;20208;-73
2021/07/03 08:09:22;;;;;;;6.50;3.13;;;;;;;18.09;64.94;100905.53;5115112;28;20629;-71
2021/07/03 08:11:47;;;;;;;5.20;2.97;;;;;;;18.31;64.20;100923.53;5096918;28;20186;-72
2021/07/03 08:14:13;;;;;;;6.50;2.60;;;;;;;18.34;63.68;100911.59;5096659;28;20180;-71
2021/07/03 08:16:38;;;;;;;5.53;3.27;;;;;;;18.42;63.82;100907.25;5115101;28;20210;-72
2021/07/03 08:19:03;;;;;;;3.87;3.47;;;;;;;18.57;63.67;100915.03;5097227;28;20177;-71
2021/07/03 08:21:29;;;;;;;4.43;3.00;;;;;;;18.64;62.87;100897.38;5114708;28;20542;-72
2021/07/03 08:23:55;;;;;;;4.43;3.07;;;;;;;18.70;62.92;100904.94;5115077;28;20263;-70
2021/07/03 08:26:20;;;;;;;4.57;2.90;;;;;;;18.68;61.80;100898.81;5096768;28;20680;-72
2021/07/03 08:28:46;;;;;;;4.43;2.80;;;;;;;18.62;62.19;100908.31;5096346;28;20174;-72
2021/07/03 08:31:11;;;;;;;6.70;3.33;;;;;;;18.54;62.71;100888.28;5114245;28;20170;-72
2021/07/03 08:33:36;;;;;;;7.07;3.17;;;;;;;18.72;62.53;100902.97;5096369;28;20177;-72
2021/07/03 08:36:02;;;;;;;4.43;2.60;;;;;;;18.86;61.53;100894.50;5096598;28;20215;-72
2021/07/03 08:38:27;;;;;;;5.10;2.83;;;;;;;18.98;62.09;100896.16;5115142;28;20177;-71
2021/07/03 08:40:54;;;;;;;5.10;2.70;;;;;;;19.28;61.54;100883.63;5096479;28;20169;-72
2021/07/03 08:43:19;;;;;;;4.43;2.90;;;;;;;19.27;60.30;100893.59;5114319;28;20200;-72
2021/07/03 08:45:44;;;;;;;4.63;2.90;;;;;;;19.26;60.55;100888.31;5096281;28;20616;-72
2021/07/03 08:48:10;;;;;;;6.37;2.80;;;;;;;19.23;60.41;100894.84;5114537;28;20169;-71
2021/07/03 08:50:35;;;;;;;5.43;2.80;;;;;;;19.53;59.70;100888.59;5115008;28;20241;-72
2021/07/03 08:53:01;;;;;;;3.00;2.57;;;;;;;19.87;59.47;100888.28;5095859;28;20189;-71
2021/07/03 08:55:27;;;;;;;4.90;2.60;;;;;;;20.07;57.68;100895.44;5078767;28;20166;-71
2021/07/03 08:57:55;;;;;;;4.77;2.70;;;;;;;20.02;57.07;100897.69;5114037;28;20170;-72
2021/07/03 09:00:40;;;;;;;5.03;2.50;;;;;;;19.98;56.77;100894.41;5095932;28;20165;-72
2021/07/03 09:03:19;;;;;;;4.47;2.60;;;;;;;19.91;54.98;100911.38;5095866;28;20192;-72
2021/07/03 09:05:53;;;;;;;4.30;2.10;;;;;;;19.61;56.07;100899.59;5096644;28;20193;-72
2021/07/03 09:08:19;;;;;;;5.00;3.03;;;;;;;19.73;56.37;100892.25;5096718;28;20154;-72
2021/07/03 09:10:45;;;;;;;4.63;2.77;;;;;;;19.68;56.49;100887.22;5096002;28;20665;-72
2021/07/03 09:13:11;;;;;;;5.03;2.40;;;;;;;19.50;57.46;100893.41;5095644;28;20197;-71
2021/07/03 09:15:41;;;;;;;2.90;2.00;;;;;;;19.89;56.01;100889.00;5113771;28;20169;-72
2021/07/03 09:18:09;;;;;;;5.77;2.70;;;;;;;19.84;56.18;100889.41;5114026;28;20227;-71
2021/07/03 09:20:52;;;;;;;4.20;2.50;;;;;;;19.89;55.95;100886.28;5095730;28;20234;-72
2021/07/03 09:23:21;;;;;;;3.13;2.57;;;;;;;20.21;56.07;100886.03;5114216;28;20200;-72
2021/07/03 09:25:49;;;;;;;4.53;2.90;;;;;;;20.48;54.34;100888.06;5095583;28;20292;-72
2021/07/03 09:28:38;;;;;;;4.10;2.60;;;;;;;20.34;54.57;100885.75;5113881;28;20170;-72
2021/07/03 09:31:05;;;;;;;3.27;2.40;;;;;;;20.34;54.78;100886.59;5085266;28;20214;-73
2021/07/03 09:33:36;;;;;;;5.83;2.70;;;;;;;20.32;53.23;100880.47;5095421;28;20173;-71
2021/07/03 09:36:10;;;;;;;2.70;2.47;;;;;;;20.46;53.18;100884.66;5095462;28;20657;-74
2021/07/03 09:38:38;;;;;;;5.50;2.47;;;;;;;20.47;54.12;100880.94;5078477;28;20633;-72
2021/07/03 09:41:16;;;;;;;7.53;2.70;;;;;;;20.43;54.70;100871.34;5113459;28;20608;-72
2021/07/03 09:43:52;;;;;;;3.93;2.50;;;;;;;20.63;53.42;100875.78;5096796;28;20165;-74
2021/07/03 09:46:39;;;;;;;6.17;2.83;;;;;;;20.52;52.57;100879.50;5113408;28;20181;-72
2021/07/03 09:49:10;;;;;;;3.63;2.13;;;;;;;20.51;52.14;100882.38;5095909;28;20248;-73
2021/07/03 09:51:43;;;;;;;4.20;2.43;;;;;;;20.82;51.90;100872.19;5095345;28;20287;-73
2021/07/03 09:54:10;;;;;;;11.50;8.47;;;;;;;20.85;51.65;100872.75;5113479;28;20221;-72
2021/07/03 09:56:36;;;;;;;2.83;2.53;;;;;;;20.68;51.41;100881.63;5096013;28;20173;-72
2021/07/03 09:59:02;;;;;;;4.00;2.80;;;;;;;20.63;51.81;100867.66;5114516;28;20222;-73
2021/07/03 10:01:27;;;;;;;2.93;2.43;;;;;;;20.90;50.46;100866.88;5095149;28;20556;-73
2021/07/03 10:03:53;;;;;;;4.87;3.97;;;;;;;21.17;50.39;100863.34;5078540;28;20173;-72
2021/07/03 10:06:31;;;;;;;4.73;3.27;;;;;;;21.29;49.37;100864.94;5117302;28;20201;-72
2021/07/03 10:08:59;;;;;;;3.73;2.83;;;;;;;21.45;49.27;100867.84;5101275;28;20157;-72
2021/07/03 10:11:26;;;;;;;5.90;4.80;;;;;;;21.52;49.45;100873.50;5089688;28;20189;-73
2021/07/03 10:13:57;;;;;;;7.47;4.33;;;;;;;21.50;49.45;100862.81;5109055;28;20177;-72
2021/07/03 10:16:22;;;;;;;6.73;2.70;;;;;;;21.45;50.50;100867.84;5122250;28;20138;-72
2021/07/03 10:18:48;;;;;;;4.73;2.40;;;;;;;21.52;49.22;100868.94;5138300;28;20177;-71
2021/07/03 10:21:22;;;;;;;5.63;2.40;;;;;;;21.64;49.08;100863.31;5115045;28;20180;-72
2021/07/03 10:23:47;;;;;;;2.67;1.90;;;;;;;21.57;49.46;100860.38;5105376;22;20225;-70
2021/07/03 10:26:13;;;;;;;2.83;2.03;;;;;;;21.58;49.35;100864.78;5078769;28;20255;-69
2021/07/03 10:28:42;;;;;;;3.17;2.40;;;;;;;21.59;49.16;100855.63;5097197;28;20275;-70
2021/07/03 10:31:09;;;;;;;3.97;2.67;;;;;;;21.81;49.28;100863.34;5078794;28;20174;-70
2021/07/03 10:33:42;;;;;;;3.27;2.77;;;;;;;22.12;49.68;100868.47;5096540;28;20186;-70
2021/07/03 10:36:08;;;;;;;4.53;2.50;;;;;;;22.33;48.14;100857.28;5078867;28;20163;-70
2021/07/03 10:38:40;;;;;;;4.30;3.30;;;;;;;22.47;46.90;100867.59;5078254;28;20182;-71
2021/07/03 10:41:20;;;;;;;2.87;2.40;;;;;;;22.23;47.46;100864.66;5078350;28;20200;-70
2021/07/03 10:43:54;;;;;;;5.03;2.13;;;;;;;22.22;46.68;100854.78;5078058;28;20286;-70
2021/07/03 10:46:31;;;;;;;6.90;5.70;;;;;;;22.34;48.28;100856.28;5078123;28;20210;-70
2021/07/03 10:49:02;;;;;;;3.87;2.20;;;;;;;22.46;47.74;100864.03;5061299;28;20201;-70
2021/07/03 10:51:33;;;;;;;3.47;2.43;;;;;;;22.48;47.59;100860.28;5096076;28;20163;-70
2021/07/03 10:54:10;;;;;;;3.63;1.80;;;;;;;22.02;48.60;100862.22;5077944;28;20566;-70
2021/07/03 10:56:45;;;;;;;5.87;2.30;;;;;;;22.78;46.52;100855.25;5061444;28;20170;-70
2021/07/03 10:59:12;;;;;;;2.37;2.07;;;;;;;22.86;46.73;100854.50;5061283;28;20177;-71
2021/07/03 11:01:37;;;;;;;4.50;2.00;;;;;;;22.64;47.21;100858.53;5077965;28;20177;-71
2021/07/03 11:04:20;;;;;;;7.53;2.77;;;;;;;23.47;45.88;100860.78;5061047;28;20198;-71
2021/07/03 11:06:53;;;;;;;4.07;2.00;;;;;;;22.91;46.59;100852.13;5061765;28;20244;-71
2021/07/03 11:09:28;;;;;;;2.43;1.70;;;;;;;23.63;44.74;100852.69;5061622;28;20162;-71
2021/07/03 11:11:56;;;;;;;4.57;2.50;;;;;;;23.74;44.26;100855.09;5078204;28;20164;-71
2021/07/03 11:14:22;;;;;;;8.20;2.10;;;;;;;23.03;46.66;100858.16;5078227;28;20179;-71
2021/07/03 11:16:53;;;;;;;3.23;1.90;;;;;;;23.88;45.22;100861.81;5077956;28;20476;-71
2021/07/03 11:19:28;;;;;;;3.60;2.23;;;;;;;24.57;43.38;100860.56;5077779;28;20253;-71
2021/07/03 11:22:07;;;;;;;3.10;2.10;;;;;;;24.40;44.40;100862.41;5076637;28;20166;-70
2021/07/03 11:25:05;;;;;;;7.93;2.30;;;;;;;23.79;44.68;100851.88;5077819;28;20249;-70